Time;durP1;ratioP1;P1;durP2;ratioP2;P2;SDS_P1;SDS_P2;PMS_P1;PMS_P2;Temp;Humidity;BMP_temperature;BMP_pressure;BME280_temperature;BME280_humidity;BME280_pressure;Samples;Min_cycle;Max_cycle;Signal;HPM_P1;HPM_P2
2022/09/06 00:01:33;;;;;;;10.57;7.07;;;;;;;18.57;88.44;101530.88;5027725;28;20026;-91
2022/09/06 00:03:58;;;;;;;10.67;7.20;;;;;;;18.54;89.54;101523.13;5028387;28;20506;-90
2022/09/06 00:06:23;;;;;;;14.38;7.57;;;;;;;18.52;90.21;101524.97;5024242;28;20283;-91
2022/09/06 00:08:48;;;;;;;11.27;7.20;;;;;;;18.50;89.29;101514.50;5028290;28;20041;-91
2022/09/06 00:11:15;;;;;;;11.00;7.75;;;;;;;18.46;89.02;101518.22;5027053;28;20064;-90
2022/09/06 00:13:41;;;;;;;11.02;7.38;;;;;;;18.43;90.45;101526.22;5027575;28;20021;-90
2022/09/06 00:16:10;;;;;;;11.35;7.80;;;;;;;18.43;91.55;101544.59;5026823;28;20029;-91
2022/09/06 00:18:36;;;;;;;10.65;6.65;;;;;;;18.39;90.78;101557.94;5028045;28;20026;-91
2022/09/06 00:21:03;;;;;;;10.70;7.60;;;;;;;18.36;91.49;101574.66;5023984;28;20413;-91
2022/09/06 00:23:28;;;;;;;12.05;7.30;;;;;;;18.36;89.88;101602.69;5023192;28;20069;-91
2022/09/06 00:26:01;;;;;;;11.48;7.57;;;;;;;18.37;90.82;101622.78;5027532;28;20057;-91
2022/09/06 00:28:26;;;;;;;10.00;7.25;;;;;;;18.36;91.39;101661.28;5025722;28;20036;-92
2022/09/06 00:30:51;;;;;;;11.17;7.77;;;;;;;18.37;92.68;101698.91;5028318;28;20017;-91
2022/09/06 00:33:17;;;;;;;10.10;7.88;;;;;;;18.35;92.24;101700.75;5019133;28;20288;-91
2022/09/06 00:35:46;;;;;;;11.23;7.90;;;;;;;18.30;92.00;101707.94;5025322;28;20101;-89
2022/09/06 00:38:11;;;;;;;11.20;6.95;;;;;;;18.25;91.38;101720.41;5026969;28;20034;-91
2022/09/06 00:40:36;;;;;;;11.13;7.35;;;;;;;18.24;91.71;101721.34;5026930;28;20038;-91
2022/09/06 00:43:02;;;;;;;12.27;7.63;;;;;;;18.21;92.52;101717.09;5027556;28;20029;-90
2022/09/06 00:45:28;;;;;;;12.40;7.78;;;;;;;18.20;93.07;101704.03;5025991;28;20144;-90
2022/09/06 00:47:55;;;;;;;10.63;7.88;;;;;;;18.23;93.33;101696.84;5031478;28;20426;-91
2022/09/06 00:50:21;;;;;;;11.20;7.57;;;;;;;18.23;93.75;101682.88;5032871;28;20064;-91
2022/09/06 00:52:49;;;;;;;10.35;7.57;;;;;;;18.23;93.26;101686.34;5030877;28;20048;-91
2022/09/06 00:55:16;;;;;;;10.00;7.22;;;;;;;18.23;93.56;101683.72;5032138;28;20036;-90
2022/09/06 00:57:42;;;;;;;11.20;7.78;;;;;;;18.25;94.37;101676.66;5028599;28;20030;-91
2022/09/06 01:00:08;;;;;;;9.90;7.15;;;;;;;18.23;92.04;101682.88;5031419;28;20028;-90
2022/09/06 01:02:34;;;;;;;10.23;7.25;;;;;;;18.27;93.95;101694.97;5030791;28;20041;-90
2022/09/06 01:05:01;;;;;;;10.82;7.38;;;;;;;18.26;95.33;101691.50;5029088;28;20037;-90
2022/09/06 01:07:41;;;;;;;10.40;7.93;;;;;;;18.29;94.22;101683.47;5029892;28;20018;-90
2022/09/06 01:10:38;;;;;;;12.35;7.90;;;;;;;18.30;93.49;101665.97;5019406;28;20064;-89
2022/09/06 01:13:19;;;;;;;11.00;7.85;;;;;;;18.29;94.33;101656.38;5040313;28;20029;-90
2022/09/06 01:16:08;;;;;;;12.82;8.40;;;;;;;18.25;93.67;101650.41;5031115;28;20475;-90
2022/09/06 01:18:58;;;;;;;13.35;8.30;;;;;;;18.23;94.77;101651.38;5023252;28;20444;-91
2022/09/06 01:21:51;;;;;;;12.07;8.00;;;;;;;18.25;94.03;101657.44;5028838;28;20406;-90
2022/09/06 01:24:38;;;;;;;11.02;8.07;;;;;;;18.24;92.67;101653.09;5027742;28;20036;-90
2022/09/06 01:27:19;;;;;;;12.40;8.20;;;;;;;18.26;94.51;101635.53;5028783;28;20436;-90
2022/09/06 01:29:51;;;;;;;14.35;8.50;;;;;;;18.25;95.15;101629.41;5026585;28;20029;-91
2022/09/06 01:32:33;;;;;;;11.20;8.55;;;;;;;18.27;95.07;101617.09;5031001;28;20071;-91
2022/09/06 01:35:09;;;;;;;11.57;8.10;;;;;;;18.22;94.32;101613.78;5025163;28;20032;-90
2022/09/06 01:37:35;;;;;;;11.27;8.20;;;;;;;18.22;95.49;101598.03;5025623;28;20053;-91
2022/09/06 01:40:01;;;;;;;13.10;8.88;;;;;;;18.21;95.21;101590.25;5031408;28;20057;-90
2022/09/06 01:42:30;;;;;;;12.27;8.77;;;;;;;18.17;94.83;101579.88;5030867;28;20521;-90
2022/09/06 01:45:09;;;;;;;12.88;8.77;;;;;;;18.15;93.09;101558.09;5030881;28;20037;-90
2022/09/06 01:48:06;;;;;;;13.20;9.70;;;;;;;18.12;94.48;101536.41;5031121;28;20498;-91
2022/09/06 01:50:44;;;;;;;13.68;9.07;;;;;;;18.06;95.24;101503.41;5026007;28;20054;-91
2022/09/06 01:53:32;;;;;;;14.15;9.23;;;;;;;18.07;96.19;101480.66;5028410;28;20465;-91
2022/09/06 01:56:55;;;;;;;12.98;9.85;;;;;;;18.05;94.72;101467.59;5025959;28;20025;-92
2022/09/06 01:59:54;;;;;;;13.20;9.20;;;;;;;18.03;94.21;101450.22;5026334;28;20033;-90
2022/09/06 02:02:26;;;;;;;13.13;9.02;;;;;;;17.98;94.70;101445.19;5025455;28;20021;-91
2022/09/06 02:05:01;;;;;;;13.52;9.68;;;;;;;17.95;95.04;101437.44;5028105;28;20029;-90
2022/09/06 02:07:29;;;;;;;14.15;10.05;;;;;;;17.96;95.29;101444.38;5018648;28;20119;-90
2022/09/06 02:10:02;;;;;;;14.25;9.60;;;;;;;17.93;93.42;101449.78;5026409;28;20482;-90
2022/09/06 02:12:31;;;;;;;13.25;9.70;;;;;;;17.92;95.74;101440.22;5021655;28;20029;-92
2022/09/06 02:15:04;;;;;;;12.68;9.65;;;;;;;17.85;92.11;101436.16;5030003;28;20531;-91
2022/09/06 02:17:34;;;;;;;13.82;10.27;;;;;;;17.87;94.86;101434.31;5030324;28;20029;-91
2022/09/06 02:20:13;;;;;;;14.50;10.52;;;;;;;17.88;95.26;101430.75;5027450;28;20029;-92
2022/09/06 02:22:43;;;;;;;16.17;10.55;;;;;;;17.87;95.13;101430.84;5027838;28;20489;-90
2022/09/06 02:25:12;;;;;;;14.98;10.60;;;;;;;17.86;95.30;101431.75;5027925;28;20025;-90
2022/09/06 02:27:37;;;;;;;13.88;10.32;;;;;;;17.84;93.85;101431.81;5024280;28;20060;-90
2022/09/06 02:30:04;;;;;;;13.85;10.25;;;;;;;17.87;95.54;101426.44;5027971;28;20057;-91
2022/09/06 02:32:34;;;;;;;15.68;11.30;;;;;;;17.89;95.31;101445.56;5027981;28;20465;-90
2022/09/06 02:35:07;;;;;;;14.65;10.40;;;;;;;17.91;96.07;101461.25;5022261;28;20036;-90
2022/09/06 02:37:33;;;;;;;12.02;9.80;;;;;;;17.89;94.62;101466.56;5026880;28;20124;-90
2022/09/06 02:39:58;;;;;;;16.27;10.32;;;;;;;17.86;93.79;101481.59;5023224;28;20455;-90
2022/09/06 02:42:25;;;;;;;16.08;10.43;;;;;;;17.84;94.04;101497.38;5025824;28;20034;-91
2022/09/06 02:44:50;;;;;;;15.02;10.70;;;;;;;17.84;95.49;101500.00;5021482;28;20074;-92
2022/09/06 02:47:15;;;;;;;14.93;10.40;;;;;;;17.85;95.04;101498.25;5025391;28;20461;-90
2022/09/06 02:49:40;;;;;;;14.18;10.43;;;;;;;17.84;95.70;101497.38;5030566;28;20983;-91
2022/09/06 02:52:06;;;;;;;14.30;10.30;;;;;;;17.84;95.72;101497.38;5024985;28;20481;-91
2022/09/06 02:54:31;;;;;;;16.55;10.95;;;;;;;17.80;95.62;101482.72;5029845;28;20296;-91
2022/09/06 02:56:56;;;;;;;14.23;10.67;;;;;;;17.80;96.05;101484.47;5031287;28;20036;-92
2022/09/06 02:59:22;;;;;;;16.00;10.80;;;;;;;17.79;96.04;101483.63;5030906;28;20330;-91
2022/09/06 03:01:47;;;;;;;16.10;11.43;;;;;;;17.76;96.13;101473.25;5025170;28;20076;-90
2022/09/06 03:04:12;;;;;;;15.10;10.60;;;;;;;17.71;95.67;101470.00;5021021;28;20288;-91
2022/09/06 03:06:38;;;;;;;15.43;10.83;;;;;;;17.67;95.37;101469.25;5030840;28;20648;-91
2022/09/06 03:09:03;;;;;;;18.63;11.27;;;;;;;17.57;95.41;101464.44;5034760;28;20296;-91
2022/09/06 03:11:28;;;;;;;17.13;11.40;;;;;;;17.54;95.58;101468.03;5026215;28;20049;-91
2022/09/06 03:13:54;;;;;;;13.65;10.75;;;;;;;17.50;96.34;101474.34;5036037;28;20071;-92
2022/09/06 03:16:19;;;;;;;15.27;11.70;;;;;;;17.47;96.40;101473.66;5044467;28;20025;-91
2022/09/06 03:18:45;;;;;;;14.40;11.05;;;;;;;17.44;97.08;101474.63;5030441;28;20576;-93
2022/09/06 03:21:11;;;;;;;16.50;11.18;;;;;;;17.37;97.57;101471.41;5027722;28;20026;-91
2022/09/06 03:23:38;;;;;;;15.32;11.20;;;;;;;17.37;97.53;101481.88;5042510;28;20026;-91
2022/09/06 03:26:04;;;;;;;15.77;11.32;;;;;;;17.34;97.96;101466.25;5026875;28;20049;-92
2022/09/06 03:28:29;;;;;;;15.05;11.30;;;;;;;17.32;97.83;101462.88;5032569;28;20029;-91
2022/09/06 03:30:55;;;;;;;17.77;11.70;;;;;;;17.34;97.65;101476.75;5033189;28;20021;-91
2022/09/06 03:33:20;;;;;;;17.23;11.67;;;;;;;17.33;97.74;101463.75;5034628;28;20044;-92
2022/09/06 03:35:51;;;;;;;17.65;12.10;;;;;;;17.31;97.98;101466.41;5032325;28;20279;-91
2022/09/06 03:38:17;;;;;;;17.23;12.10;;;;;;;17.36;98.22;101468.84;5032091;28;20032;-91
2022/09/06 03:40:47;;;;;;;15.48;11.05;;;;;;;17.31;97.81;101466.41;5029834;28;20022;-91
2022/09/06 03:43:13;;;;;;;19.48;12.25;;;;;;;17.31;97.62;101462.94;5028454;28;20037;-91
2022/09/06 03:45:39;;;;;;;17.42;12.10;;;;;;;17.27;97.27;101459.56;5030018;28;20033;-93
2022/09/06 03:48:04;;;;;;;19.98;12.43;;;;;;;17.21;97.35;101466.84;5029958;28;20068;-92
2022/09/06 03:50:29;;;;;;;17.45;11.88;;;;;;;17.12;97.28;101469.84;5028375;28;20055;-92
2022/09/06 03:52:55;;;;;;;16.25;11.82;;;;;;;17.08;97.42;101482.22;5036450;28;20021;-91
2022/09/06 03:55:20;;;;;;;15.93;11.87;;;;;;;17.02;97.53;101477.22;5028787;28;20774;-92
2022/09/06 03:57:45;;;;;;;17.03;12.47;;;;;;;16.94;97.77;101474.06;5029547;28;20283;-91
2022/09/06 04:00:11;;;;;;;16.17;12.03;;;;;;;16.92;97.89;101471.50;5018729;28;20293;-91
2022/09/06 04:02:37;;;;;;;16.17;11.80;;;;;;;16.89;97.48;101481.25;5027821;28;20280;-91
2022/09/06 04:05:02;;;;;;;16.13;12.02;;;;;;;16.84;97.86;101486.69;5030515;28;20408;-91
2022/09/06 04:07:28;;;;;;;16.63;12.00;;;;;;;16.79;98.03;101483.34;5038971;28;20386;-92
2022/09/06 04:09:53;;;;;;;16.10;12.00;;;;;;;16.78;98.53;101486.91;5025248;28;20037;-87
2022/09/06 04:12:18;;;;;;;16.83;12.30;;;;;;;16.76;98.81;101485.25;5029598;28;20406;-87
2022/09/06 04:14:43;;;;;;;17.50;12.27;;;;;;;16.68;98.65;101472.47;5029878;28;20287;-86
2022/09/06 04:17:09;;;;;;;17.47;12.07;;;;;;;16.67;98.61;101476.00;5027723;28;20280;-86
2022/09/06 04:19:34;;;;;;;18.98;12.73;;;;;;;16.64;99.03;101472.66;5028617;28;20795;-87
2022/09/06 04:21:59;;;;;;;18.10;12.77;;;;;;;16.57;98.14;101470.25;5032735;28;20029;-86
2022/09/06 04:24:25;;;;;;;19.87;13.17;;;;;;;16.57;98.39;101474.63;5033900;28;20276;-87
2022/09/06 04:26:50;;;;;;;18.07;12.23;;;;;;;16.54;98.94;101472.97;5034045;28;20268;-86
2022/09/06 04:29:15;;;;;;;20.63;13.00;;;;;;;16.49;98.38;101480.16;5025083;28;20630;-87
2022/09/06 04:31:41;;;;;;;17.50;12.77;;;;;;;16.43;98.32;101475.16;5026638;28;20482;-86
2022/09/06 04:34:06;;;;;;;18.73;13.65;;;;;;;16.42;98.65;101493.53;5032962;28;20351;-86
2022/09/06 04:36:34;;;;;;;18.77;13.40;;;;;;;16.34;98.59;101490.31;5032406;28;20401;-87
2022/09/06 04:38:59;;;;;;;17.42;13.23;;;;;;;16.31;98.54;101493.91;5031932;28;20028;-91
2022/09/06 04:41:24;;;;;;;21.50;14.27;;;;;;;16.33;98.94;101492.09;5032402;28;20029;-90
2022/09/06 04:43:49;;;;;;;19.57;13.50;;;;;;;16.32;98.93;101490.38;5035065;28;20376;-91
2022/09/06 04:46:23;;;;;;;18.77;13.90;;;;;;;16.25;98.77;101488.91;5034223;28;20755;-91
2022/09/06 04:48:50;;;;;;;18.75;13.48;;;;;;;16.19;98.71;101486.50;5032067;28;20136;-91
2022/09/06 04:51:15;;;;;;;19.35;13.95;;;;;;;16.21;99.24;101505.63;5037385;28;20032;-91
2022/09/06 04:53:41;;;;;;;22.15;13.95;;;;;;;16.14;99.02;101498.91;5033118;28;20119;-91
2022/09/06 04:56:09;;;;;;;21.63;14.60;;;;;;;16.06;98.99;101490.47;5024507;28;20501;-90
2022/09/06 04:58:35;;;;;;;19.27;13.57;;;;;;;16.06;99.23;101495.72;5028841;28;20021;-91
2022/09/06 05:01:00;;;;;;;20.50;13.63;;;;;;;16.05;99.37;101499.22;5033668;28;20132;-92
2022/09/06 05:03:25;;;;;;;18.08;13.43;;;;;;;16.00;99.37;101490.72;5032238;28;20473;-91
2022/09/06 05:05:51;;;;;;;22.07;14.60;;;;;;;15.98;99.72;101500.34;5038024;28;20056;-91
2022/09/06 05:08:16;;;;;;;20.30;14.13;;;;;;;15.97;99.54;101494.28;5035861;28;20276;-87
2022/09/06 05:10:41;;;;;;;21.10;14.27;;;;;;;15.96;99.88;101499.56;5032796;28;20029;-86
2022/09/06 05:13:07;;;;;;;20.90;14.13;;;;;;;15.95;99.81;101500.47;5030296;28;20087;-86
2022/09/06 05:15:32;;;;;;;19.97;14.33;;;;;;;15.96;99.90;101510.03;5031386;28;20718;-86
2022/09/06 05:18:02;;;;;;;20.27;14.27;;;;;;;15.91;99.91;101510.19;5042223;28;20280;-86
2022/09/06 05:20:28;;;;;;;21.05;14.20;;;;;;;15.95;100.00;101514.41;5031379;28;20030;-86
2022/09/06 05:22:53;;;;;;;21.60;14.15;;;;;;;15.94;99.91;101511.84;5030432;28;20040;-86
2022/09/06 05:25:19;;;;;;;19.73;14.00;;;;;;;15.97;100.00;101509.97;5031107;28;20032;-86
2022/09/06 05:27:44;;;;;;;19.15;13.90;;;;;;;15.91;100.00;101502.34;5035790;28;20397;-87
2022/09/06 05:30:10;;;;;;;19.07;14.13;;;;;;;15.96;100.00;101508.28;5031413;28;20049;-86
2022/09/06 05:32:35;;;;;;;21.05;14.20;;;;;;;15.93;99.92;101504.91;5032552;28;20332;-86
2022/09/06 05:35:01;;;;;;;21.27;14.40;;;;;;;15.93;99.71;101515.38;5031943;28;20107;-86
2022/09/06 05:37:26;;;;;;;24.42;14.85;;;;;;;15.97;100.00;101514.34;5032767;28;20307;-86
2022/09/06 05:39:51;;;;;;;22.77;15.50;;;;;;;15.98;100.00;101514.28;5032830;28;20040;-86
2022/09/06 05:42:17;;;;;;;22.90;15.43;;;;;;;15.99;100.00;101517.75;5031578;28;20283;-86
2022/09/06 05:44:42;;;;;;;20.65;15.10;;;;;;;15.99;100.00;101518.63;5032655;28;20037;-86
2022/09/06 05:47:07;;;;;;;20.90;15.52;;;;;;;16.00;100.00;101517.72;5032064;28;20107;-86
2022/09/06 05:49:33;;;;;;;26.17;16.40;;;;;;;16.06;100.00;101516.63;5031471;28;20033;-86
2022/09/06 05:51:58;;;;;;;24.08;16.30;;;;;;;16.05;100.00;101518.41;5031410;28;20425;-86
2022/09/06 05:54:25;;;;;;;26.55;16.77;;;;;;;16.04;100.00;101515.81;5028727;28;20059;-86
2022/09/06 05:56:50;;;;;;;24.05;16.83;;;;;;;16.02;100.00;101509.81;5028957;28;20032;-87
2022/09/06 05:59:15;;;;;;;23.90;15.90;;;;;;;16.02;99.29;101525.50;5034586;28;20025;-86
2022/09/06 06:01:51;;;;;;;23.35;15.77;;;;;;;16.08;100.00;101527.91;5030743;28;20029;-86
2022/09/06 06:04:18;;;;;;;26.13;16.13;;;;;;;16.09;100.00;101522.63;5029839;28;20402;-87
2022/09/06 06:06:44;;;;;;;24.27;16.33;;;;;;;16.11;100.00;101520.78;5030296;28;20033;-86
2022/09/06 06:09:09;;;;;;;25.55;16.80;;;;;;;16.15;100.00;101525.03;5031684;28;20037;-87
2022/09/06 06:11:34;;;;;;;25.47;17.20;;;;;;;16.16;100.00;101521.50;5031218;28;20033;-87
2022/09/06 06:14:01;;;;;;;26.25;17.63;;;;;;;16.17;100.00;101530.19;5029376;28;20375;-86
2022/09/06 06:16:27;;;;;;;26.75;17.33;;;;;;;16.19;100.00;101523.13;5028492;28;20018;-87
2022/09/06 06:18:53;;;;;;;29.00;18.20;;;;;;;16.28;100.00;101532.41;5029996;28;20073;-89
2022/09/06 06:21:20;;;;;;;26.48;17.70;;;;;;;16.29;100.00;101529.75;5029100;28;20041;-91
2022/09/06 06:23:48;;;;;;;25.13;17.13;;;;;;;16.24;100.00;101522.97;5027535;28;20108;-91
2022/09/06 06:26:13;;;;;;;26.40;18.60;;;;;;;16.34;100.00;101529.56;5029460;28;20156;-89
2022/09/06 06:28:39;;;;;;;26.95;17.73;;;;;;;16.33;99.99;101525.25;5030703;28;20029;-90
2022/09/06 06:31:06;;;;;;;26.85;18.17;;;;;;;16.41;100.00;101523.22;5031953;28;20504;-91
2022/09/06 06:33:32;;;;;;;29.08;18.42;;;;;;;16.41;100.00;101529.31;5042636;28;20029;-90
2022/09/06 06:36:03;;;;;;;27.30;18.83;;;;;;;16.44;100.00;101521.34;5031815;28;20025;-92
2022/09/06 06:38:29;;;;;;;30.25;19.75;;;;;;;16.47;100.00;101530.84;5028219;28;20037;-89
2022/09/06 06:40:55;;;;;;;30.92;21.15;;;;;;;16.52;100.00;101531.50;5031814;28;20498;-91
2022/09/06 06:43:20;;;;;;;29.52;20.58;;;;;;;16.51;100.00;101516.75;5030482;28;20038;-90
2022/09/06 06:45:49;;;;;;;32.87;22.40;;;;;;;16.58;100.00;101512.97;5032346;28;20024;-91
2022/09/06 06:48:15;;;;;;;32.28;22.52;;;;;;;16.63;100.00;101504.97;5038131;28;20650;-91
2022/09/06 06:50:40;;;;;;;32.47;22.42;;;;;;;16.62;100.00;101508.50;5033070;28;20129;-90
2022/09/06 06:53:05;;;;;;;32.20;21.83;;;;;;;16.64;100.00;101509.31;5029667;28;20087;-90
2022/09/06 06:55:31;;;;;;;37.03;23.37;;;;;;;16.66;100.00;101503.06;5031113;28;20568;-91
2022/09/06 06:57:58;;;;;;;33.93;23.73;;;;;;;16.75;100.00;101518.44;5041103;28;20283;-91
2022/09/06 07:00:24;;;;;;;37.08;25.17;;;;;;;16.84;100.00;101522.47;5031321;28;20311;-89
2022/09/06 07:02:49;;;;;;;38.75;25.27;;;;;;;16.89;100.00;101505.66;5030966;28;20061;-90
2022/09/06 07:05:17;;;;;;;36.00;24.97;;;;;;;16.95;100.00;101512.44;5030519;28;20123;-89
2022/09/06 07:07:42;;;;;;;37.15;25.30;;;;;;;16.97;100.00;101503.59;5038491;28;20292;-90
2022/09/06 07:10:08;;;;;;;35.27;24.23;;;;;;;17.02;100.00;101518.28;5028505;28;20046;-89
2022/09/06 07:12:33;;;;;;;33.45;22.77;;;;;;;17.02;100.00;101511.28;5029397;28;20930;-91
2022/09/06 07:14:58;;;;;;;33.90;23.80;;;;;;;17.10;100.00;101506.59;5028627;28;20048;-90
2022/09/06 07:17:24;;;;;;;36.53;24.17;;;;;;;17.14;100.00;101507.31;5029534;28;20060;-89
2022/09/06 07:19:49;;;;;;;32.65;23.35;;;;;;;17.17;100.00;101501.94;5029525;28;20837;-85
2022/09/06 07:22:14;;;;;;;33.47;22.27;;;;;;;17.24;100.00;101504.28;5025104;28;20025;-86
2022/09/06 07:24:40;;;;;;;33.20;22.30;;;;;;;17.27;100.00;101500.66;5030625;28;20309;-85
2022/09/06 07:27:05;;;;;;;31.50;20.98;;;;;;;17.36;100.00;101497.66;5029801;28;20033;-86
2022/09/06 07:29:30;;;;;;;33.37;21.13;;;;;;;17.38;100.00;101496.69;5028333;28;20025;-86
2022/09/06 07:31:56;;;;;;;30.17;19.33;;;;;;;17.49;100.00;101498.84;5027387;28;20378;-86
2022/09/06 07:34:24;;;;;;;27.83;19.02;;;;;;;17.56;100.00;101496.81;5028270;28;20303;-86
2022/09/06 07:36:53;;;;;;;30.30;18.90;;;;;;;17.67;100.00;101502.53;5036081;28;20063;-86
2022/09/06 07:39:18;;;;;;;30.20;18.77;;;;;;;17.78;99.14;101502.91;5027309;28;20025;-86
2022/09/06 07:41:44;;;;;;;26.83;17.98;;;;;;;17.84;99.84;101493.91;5028465;28;20075;-86
2022/09/06 07:44:09;;;;;;;28.25;18.02;;;;;;;17.94;99.04;101495.22;5025467;28;20405;-86
2022/09/06 07:46:34;;;;;;;26.30;18.10;;;;;;;18.02;99.32;101500.97;5026283;28;20490;-86
2022/09/06 07:49:03;;;;;;;25.98;18.40;;;;;;;18.11;97.22;101498.81;5019644;28;20560;-89
2022/09/06 07:51:28;;;;;;;33.97;18.73;;;;;;;18.18;97.14;101504.63;5023968;28;20030;-90
2022/09/06 07:53:57;;;;;;;25.93;17.50;;;;;;;18.28;98.67;101502.47;5017157;28;20029;-91
2022/09/06 07:56:23;;;;;;;29.00;18.60;;;;;;;18.33;97.31;101503.09;5029943;28;20284;-89
2022/09/06 07:58:50;;;;;;;24.13;17.02;;;;;;;18.39;97.48;101500.19;5029317;28;20029;-91
2022/09/06 08:01:28;;;;;;;25.90;17.83;;;;;;;18.48;96.93;101507.66;5028987;28;20047;-90
2022/09/06 08:03:58;;;;;;;29.77;17.38;;;;;;;18.55;98.98;101501.19;5030023;28;20120;-91
2022/09/06 08:06:24;;;;;;;26.13;17.13;;;;;;;18.65;97.32;101501.63;5030601;28;20531;-90
2022/09/06 08:08:50;;;;;;;24.25;15.55;;;;;;;18.78;95.20;101493.09;5029542;28;20025;-89
2022/09/06 08:11:16;;;;;;;25.77;16.13;;;;;;;18.93;95.90;101486.28;5035572;28;20094;-90
2022/09/06 08:13:41;;;;;;;22.67;15.25;;;;;;;19.02;96.81;101485.00;5028290;28;20033;-89
2022/09/06 08:16:10;;;;;;;21.70;14.77;;;;;;;19.23;96.50;101478.69;5035349;28;20017;-90
2022/09/06 08:18:36;;;;;;;21.50;14.82;;;;;;;19.46;97.15;101483.66;5029115;28;20367;-90
2022/09/06 08:21:05;;;;;;;21.67;14.57;;;;;;;19.79;95.86;101477.63;5026155;28;20592;-91
2022/09/06 08:23:30;;;;;;;18.33;13.00;;;;;;;20.17;95.76;101472.97;5024647;28;20136;-92
2022/09/06 08:25:57;;;;;;;22.10;12.60;;;;;;;20.46;96.00;101467.88;5025448;28;20464;-91
2022/09/06 08:28:22;;;;;;;18.45;10.98;;;;;;;20.75;84.43;101474.13;5028661;28;20029;-91
2022/09/06 08:30:48;;;;;;;18.30;11.13;;;;;;;21.00;90.24;101481.53;5029205;28;20103;-90
2022/09/06 08:33:14;;;;;;;15.43;9.97;;;;;;;21.10;85.63;101474.78;5032835;28;20037;-91
2022/09/06 08:35:39;;;;;;;15.88;9.70;;;;;;;21.20;81.88;101478.63;5026687;28;20284;-90
2022/09/06 08:38:05;;;;;;;16.08;10.18;;;;;;;21.33;89.56;101476.13;5029522;28;20029;-90
2022/09/06 08:40:31;;;;;;;13.68;9.55;;;;;;;21.60;91.11;101471.00;5021785;28;20054;-91
2022/09/06 08:42:56;;;;;;;13.95;9.43;;;;;;;21.77;86.89;101472.66;5027362;28;20501;-91
2022/09/06 08:45:22;;;;;;;14.15;9.93;;;;;;;21.73;87.90;101471.13;5030107;28;20022;-90
2022/09/06 08:47:51;;;;;;;12.75;8.65;;;;;;;21.80;82.39;101469.81;5031032;28;20061;-90
2022/09/06 08:50:17;;;;;;;11.68;7.78;;;;;;;22.07;82.04;101476.06;5030588;28;20060;-90
2022/09/06 08:52:58;;;;;;;11.20;7.85;;;;;;;22.32;84.81;101470.97;5029940;28;20116;-90
2022/09/06 08:55:47;;;;;;;10.82;6.80;;;;;;;22.68;82.75;101473.06;5024874;28;20472;-90
2022/09/06 08:58:28;;;;;;;9.95;6.00;;;;;;;22.93;80.44;101460.97;5034294;28;20083;-90
2022/09/06 09:00:59;;;;;;;7.93;5.65;;;;;;;23.19;75.10;101463.56;5028478;28;20033;-90
2022/09/06 09:03:35;;;;;;;11.13;6.05;;;;;;;23.35;75.70;101468.66;5027933;28;20045;-91
2022/09/06 09:06:04;;;;;;;9.07;5.75;;;;;;;23.56;72.25;101467.25;5028157;28;20029;-90
2022/09/06 09:09:07;;;;;;;10.38;5.68;;;;;;;23.78;72.78;101476.38;5047052;28;20030;-90
2022/09/06 09:11:34;;;;;;;8.27;5.80;;;;;;;23.90;67.78;101464.94;5031377;28;20029;-90
2022/09/06 09:14:30;;;;;;;9.68;5.30;;;;;;;24.00;73.64;101468.66;5032161;28;20387;-90
2022/09/06 09:17:02;;;;;;;11.30;5.45;;;;;;;24.08;70.99;101458.38;5030930;28;20040;-90
2022/09/06 09:19:30;;;;;;;6.80;5.00;;;;;;;24.19;68.93;101460.25;5030769;28;20032;-91
2022/09/06 09:21:56;;;;;;;8.43;5.18;;;;;;;24.29;68.45;101462.16;5031065;28;20140;-90
2022/09/06 09:24:23;;;;;;;7.03;4.87;;;;;;;24.43;68.18;101453.22;5026950;28;20112;-89
2022/09/06 09:26:56;;;;;;;6.55;4.03;;;;;;;24.57;66.38;101462.81;5031426;28;20295;-90
2022/09/06 09:29:21;;;;;;;7.72;4.38;;;;;;;24.65;65.34;101461.31;5031202;28;20040;-91
2022/09/06 09:31:53;;;;;;;7.97;4.00;;;;;;;24.85;65.26;101456.34;5030389;28;20079;-90
2022/09/06 09:34:36;;;;;;;6.30;4.15;;;;;;;24.95;65.20;101452.97;5031282;28;20506;-89
2022/09/06 09:37:23;;;;;;;5.57;3.97;;;;;;;25.04;64.67;101460.22;5026788;28;20034;-89
2022/09/06 09:39:51;;;;;;;5.95;3.72;;;;;;;25.10;62.27;101451.81;5031889;28;20534;-88
2022/09/06 09:42:43;;;;;;;6.05;3.70;;;;;;;25.23;65.11;101456.19;5031329;28;20025;-90
2022/09/06 09:45:28;;;;;;;5.53;3.72;;;;;;;25.33;65.19;101460.69;5025877;28;20050;-89
2022/09/06 09:47:54;;;;;;;6.72;3.50;;;;;;;25.44;62.21;101455.44;5029113;28;20045;-89
2022/09/06 09:50:27;;;;;;;7.40;4.20;;;;;;;25.42;60.99;101461.81;5030934;28;20103;-90
2022/09/06 09:52:53;;;;;;;6.20;4.27;;;;;;;25.49;58.90;101473.66;5029190;28;20115;-89
2022/09/06 09:55:24;;;;;;;8.57;4.07;;;;;;;25.54;59.07;101469.69;5028372;28;20060;-89
2022/09/06 09:57:51;;;;;;;9.65;4.65;;;;;;;25.58;58.38;101459.72;5031577;28;20120;-90
2022/09/06 10:00:42;;;;;;;6.60;3.78;;;;;;;25.68;62.06;101459.84;5029879;28;20687;-89
2022/09/06 10:03:16;;;;;;;7.57;4.28;;;;;;;25.70;59.68;101455.25;5032662;28;20040;-89
2022/09/06 10:05:53;;;;;;;8.20;4.15;;;;;;;25.70;60.80;101449.94;5032107;28;20108;-90
2022/09/06 10:08:22;;;;;;;7.53;4.68;;;;;;;25.78;59.19;101460.84;5030524;28;20026;-89
2022/09/06 10:10:48;;;;;;;6.55;4.38;;;;;;;25.77;58.08;101445.84;5030122;28;20103;-90
2022/09/06 10:13:21;;;;;;;7.15;4.07;;;;;;;25.83;57.84;101448.88;5034122;28;20074;-90
2022/09/06 10:15:48;;;;;;;6.50;4.60;;;;;;;25.81;56.60;101447.28;5026768;28;20035;-89
2022/09/06 10:18:28;;;;;;;6.43;3.70;;;;;;;25.90;58.66;101450.09;5029750;28;20791;-90
2022/09/06 10:21:09;;;;;;;8.38;4.60;;;;;;;25.92;58.52;101452.63;5027177;28;20462;-90
2022/09/06 10:23:56;;;;;;;8.70;4.15;;;;;;;25.96;57.85;101457.56;5038432;28;20043;-89
2022/09/06 10:26:40;;;;;;;7.47;4.20;;;;;;;25.92;60.25;101466.75;5034163;28;20112;-90
2022/09/06 10:29:08;;;;;;;8.40;4.60;;;;;;;25.99;57.29;101468.94;5029876;28;20377;-89
2022/09/06 10:31:42;;;;;;;7.10;4.50;;;;;;;26.10;56.62;101474.25;5028713;28;20028;-91
2022/09/06 10:34:38;;;;;;;7.05;4.22;;;;;;;26.19;58.50;101479.69;5029072;28;20033;-89
2022/09/06 10:37:13;;;;;;;6.55;4.25;;;;;;;26.27;57.18;101476.47;5036092;28;20033;-88
2022/09/06 10:39:44;;;;;;;8.77;4.70;;;;;;;26.21;57.23;101477.75;5036903;28;20052;-89
2022/09/06 10:42:28;;;;;;;6.57;4.22;;;;;;;26.24;57.72;101469.56;5035796;28;20497;-90
2022/09/06 10:45:14;;;;;;;7.28;4.95;;;;;;;26.24;56.66;101460.72;5034198;28;20370;-89
2022/09/06 10:48:07;;;;;;;7.43;4.82;;;;;;;26.27;57.50;101464.00;5033563;28;20053;-89
2022/09/06 10:50:43;;;;;;;7.90;4.80;;;;;;;26.29;59.11;101456.75;5024548;28;20041;-89
2022/09/06 10:53:22;;;;;;;6.65;4.57;;;;;;;26.43;56.99;101460.97;5026752;28;20163;-89
2022/09/06 10:56:00;;;;;;;7.45;4.47;;;;;;;26.43;55.97;101445.00;5029558;28;20427;-90
2022/09/06 10:58:30;;;;;;;8.18;5.00;;;;;;;26.48;54.70;101453.44;5030842;28;20104;-88
2022/09/06 11:00:55;;;;;;;7.13;4.40;;;;;;;26.53;55.44;101453.94;5034239;28;20390;-89
2022/09/06 11:03:30;;;;;;;7.60;5.00;;;;;;;26.56;55.97;101456.34;5029434;28;20505;-88
2022/09/06 11:06:03;;;;;;;7.03;4.50;;;;;;;26.52;55.71;101462.88;5028580;28;20057;-89
2022/09/06 11:08:32;;;;;;;9.80;4.57;;;;;;;26.58;55.05;101462.38;5018932;28;20466;-89
2022/09/06 11:11:05;;;;;;;9.57;5.00;;;;;;;26.60;55.23;101465.78;5037019;28;20045;-88
2022/09/06 11:13:31;;;;;;;9.32;4.82;;;;;;;26.57;53.92;101463.34;5029811;28;20401;-89
2022/09/06 11:16:10;;;;;;;8.85;5.22;;;;;;;26.60;55.51;101456.94;5029204;28;20108;-88
2022/09/06 11:18:38;;;;;;;8.90;5.38;;;;;;;26.65;54.68;101463.56;5029724;28;20422;-88
2022/09/06 11:21:35;;;;;;;11.18;5.47;;;;;;;26.70;55.67;101468.50;5028209;28;20390;-89
2022/09/06 11:24:44;;;;;;;7.95;5.43;;;;;;;26.66;56.46;101473.25;5024038;28;20033;-90